Time;durP1;ratioP1;P1;durP2;ratioP2;P2;SDS_P1;SDS_P2;PMS_P1;PMS_P2;Temp;Humidity;BMP_temperature;BMP_pressure;BME280_temperature;BME280_humidity;BME280_pressure;Samples;Min_cycle;Max_cycle;Signal;HPM_P1;HPM_P2
2022/08/12 00:49:41;;;;;;;3.43;2.47;;;;;;;21.48;41.40;98923.47;6942615;28;20203;-80
2022/08/12 00:53:05;;;;;;;2.83;2.60;;;;;;;20.49;43.79;98915.66;6948465;28;20242;-81
2022/08/12 00:56:28;;;;;;;3.77;2.47;;;;;;;20.63;43.52;98927.81;6949653;28;20223;-80
2022/08/12 00:59:51;;;;;;;3.53;2.60;;;;;;;20.32;44.53;98926.81;6948865;28;20223;-80
2022/08/12 01:03:16;;;;;;;3.27;2.80;;;;;;;20.56;43.71;98905.28;6949302;28;20229;-80
2022/08/12 01:13:59;;;;;;;2.43;2.23;;;;;;;21.23;42.10;98930.81;6949472;28;20233;-80
2022/08/12 01:17:21;;;;;;;3.93;3.17;;;;;;;20.72;43.40;98923.47;6949157;28;20313;-80
2022/08/12 01:20:50;;;;;;;3.10;2.80;;;;;;;20.81;43.25;98932.84;6950476;28;20569;-81
2022/08/12 01:24:17;;;;;;;4.77;2.70;;;;;;;20.94;42.76;98924.94;6951190;28;20229;-81
2022/08/12 01:27:41;;;;;;;3.13;2.50;;;;;;;21.28;42.17;98932.47;6942787;28;20206;-80
2022/08/12 01:31:05;;;;;;;2.97;2.50;;;;;;;21.17;42.31;98935.44;6949598;28;20620;-81
2022/08/12 01:34:31;;;;;;;2.80;2.50;;;;;;;21.05;42.83;98934.06;6952657;28;20289;-80
2022/08/12 01:37:57;;;;;;;2.80;2.60;;;;;;;20.89;43.22;98915.88;6960008;28;20215;-81
2022/08/12 01:41:21;;;;;;;4.10;2.80;;;;;;;20.90;43.33;98923.84;6962223;28;20211;-81
2022/08/12 01:44:45;;;;;;;2.70;2.50;;;;;;;21.39;42.04;98914.09;6950888;28;20697;-81
2022/08/12 01:48:15;;;;;;;3.13;2.90;;;;;;;20.57;42.93;98833.81;6947491;28;20227;-80
2022/08/12 01:51:39;;;;;;;4.73;2.80;;;;;;;20.83;43.54;98904.06;6947995;28;20268;-81
2022/08/12 01:55:04;;;;;;;3.67;2.80;;;;;;;21.11;42.65;98908.28;6947617;28;20222;-81
2022/08/12 01:58:28;;;;;;;3.80;2.87;;;;;;;20.80;43.20;98912.81;6948921;28;20212;-81
2022/08/12 02:01:54;;;;;;;3.40;3.10;;;;;;;20.49;44.04;98904.72;6953077;28;20207;-81
2022/08/12 02:12:49;;;;;;;4.10;3.00;;;;;;;19.66;46.32;98916.44;6952858;28;20290;-80
2022/08/12 02:16:14;;;;;;;3.23;2.77;;;;;;;19.97;45.93;98912.84;6953394;28;20228;-81
2022/08/12 02:20:06;;;;;;;5.63;3.03;;;;;;;19.84;46.47;98918.78;6951049;28;20211;-81
2022/08/12 02:23:28;;;;;;;5.33;2.90;;;;;;;19.87;46.17;98898.28;6952645;28;20697;-80
2022/08/12 02:26:51;;;;;;;3.73;3.13;;;;;;;19.95;45.82;98915.03;6953113;28;20199;-80
2022/08/12 02:30:17;;;;;;;5.13;3.00;;;;;;;20.12;45.56;98898.47;6951937;28;20203;-81
2022/08/12 02:33:40;;;;;;;4.67;3.23;;;;;;;19.72;46.66;98900.88;6952896;28;20234;-80
2022/08/12 02:37:04;;;;;;;5.07;3.13;;;;;;;19.64;46.95;98904.09;6953292;28;20211;-80
2022/08/12 02:40:27;;;;;;;3.10;2.80;;;;;;;19.99;45.98;98893.44;6952000;28;20280;-80
2022/08/12 02:43:52;;;;;;;3.17;2.90;;;;;;;19.34;47.65;98890.16;6953151;28;20309;-80
2022/08/12 02:47:14;;;;;;;4.23;2.90;;;;;;;19.36;48.00;98890.72;6953692;28;20687;-80
2022/08/12 02:50:42;;;;;;;3.43;3.13;;;;;;;18.94;49.15;98890.53;6952433;28;20222;-80
2022/08/12 02:54:06;;;;;;;3.43;3.13;;;;;;;19.48;48.25;98886.72;6953265;28;20269;-81
2022/08/12 02:57:28;;;;;;;3.40;3.10;;;;;;;19.88;46.52;98891.72;6953569;28;20301;-80
2022/08/12 03:00:50;;;;;;;4.00;3.10;;;;;;;19.74;46.88;98885.03;6952085;28;20607;-80
2022/08/12 03:04:13;;;;;;;3.63;2.97;;;;;;;19.72;46.66;98896.25;6952360;28;20764;-80
2022/08/12 03:07:44;;;;;;;3.37;3.07;;;;;;;19.80;46.65;98894.94;6951216;28;20214;-81
2022/08/12 03:11:11;;;;;;;3.27;2.97;;;;;;;20.16;45.89;98891.41;6951160;28;20208;-80
2022/08/12 03:14:34;;;;;;;3.23;2.77;;;;;;;20.34;45.57;98888.22;6951816;28;20734;-80
2022/08/12 03:17:58;;;;;;;6.07;2.90;;;;;;;20.32;45.02;98884.91;6949739;28;20218;-80
2022/08/12 03:21:20;;;;;;;3.07;2.87;;;;;;;20.00;46.13;98870.44;6952038;28;20233;-80
2022/08/12 03:24:43;;;;;;;4.37;3.13;;;;;;;19.55;47.37;98891.97;6952390;28;20588;-80
2022/08/12 03:28:09;;;;;;;3.40;3.10;;;;;;;20.06;46.09;98883.06;6944814;28;20200;-81
2022/08/12 03:31:32;;;;;;;3.47;2.80;;;;;;;20.19;45.15;98878.00;6933890;28;20215;-80
2022/08/12 03:34:57;;;;;;;3.43;3.23;;;;;;;20.16;45.52;98874.97;6921833;28;20236;-81
2022/08/12 03:38:20;;;;;;;6.27;3.50;;;;;;;20.33;45.02;98901.06;6921652;28;20304;-81
2022/08/12 03:41:48;;;;;;;3.60;3.30;;;;;;;19.82;46.10;98868.13;6921684;28;20204;-80
2022/08/12 04:00:22;;;;;;;4.17;3.40;;;;;;;20.29;45.30;98910.09;6923603;28;20184;-80
2022/08/12 04:03:54;;;;;;;3.27;2.97;;;;;;;20.22;45.42;98898.56;6923572;28;20224;-80
2022/08/12 04:07:17;;;;;;;3.63;2.70;;;;;;;20.12;45.70;98910.25;6923505;28;20216;-80
2022/08/12 04:14:16;;;;;;;3.70;3.40;;;;;;;19.67;47.25;98907.13;6950492;28;20238;-81
2022/08/12 04:17:39;;;;;;;3.73;3.33;;;;;;;19.83;46.61;98905.34;6948132;28;20207;-81
2022/08/12 04:21:02;;;;;;;3.70;3.33;;;;;;;19.70;47.08;98900.31;6949780;28;20207;-81
2022/08/12 04:24:25;;;;;;;5.13;3.37;;;;;;;19.48;46.99;98900.41;6949851;28;20707;-79
2022/08/12 04:27:49;;;;;;;3.70;3.30;;;;;;;19.51;47.04;98890.88;6949557;28;20207;-81
2022/08/12 04:31:12;;;;;;;4.77;3.20;;;;;;;19.62;46.93;98877.00;6949942;28;20333;-80
2022/08/12 04:34:36;;;;;;;3.53;3.23;;;;;;;20.00;46.39;98898.66;6949925;28;20235;-80
2022/08/12 04:37:59;;;;;;;5.37;3.57;;;;;;;19.95;46.30;98905.97;6949636;28;20306;-80
2022/08/12 04:41:21;;;;;;;3.60;3.30;;;;;;;19.81;46.43;98918.47;6950506;28;20207;-81
2022/08/12 04:44:43;;;;;;;3.80;3.50;;;;;;;19.67;46.97;98909.03;6950252;28;20230;-80
2022/08/12 04:48:05;;;;;;;3.50;3.03;;;;;;;19.36;47.84;98907.13;6949446;28;20211;-80
2022/08/12 04:51:26;;;;;;;3.47;3.07;;;;;;;18.49;48.31;98824.44;6950093;28;20227;-80
2022/08/12 04:54:49;;;;;;;3.80;3.50;;;;;;;19.58;47.35;98913.34;6950935;28;20235;-80
2022/08/12 04:58:12;;;;;;;3.77;3.47;;;;;;;19.37;47.47;98890.47;6949697;28;20555;-80
2022/08/12 05:01:35;;;;;;;4.30;3.50;;;;;;;19.53;47.18;98908.66;6949495;28;20203;-81
2022/08/12 05:04:57;;;;;;;4.23;3.83;;;;;;;19.05;48.94;98913.31;6952718;28;20234;-79
2022/08/12 05:08:20;;;;;;;4.10;3.80;;;;;;;18.61;50.35;98906.22;6949043;28;20206;-79
2022/08/12 05:11:43;;;;;;;4.03;3.30;;;;;;;18.54;50.75;98916.50;6950950;28;20581;-79
2022/08/12 05:15:07;;;;;;;4.80;3.20;;;;;;;19.32;48.74;98912.28;6947897;28;20231;-79
2022/08/12 05:18:28;;;;;;;7.23;3.70;;;;;;;19.23;48.18;98893.88;6948080;28;20203;-79
2022/08/12 05:21:50;;;;;;;5.00;3.90;;;;;;;18.84;50.15;98917.72;6949203;28;20276;-79
2022/08/12 05:25:12;;;;;;;5.40;3.53;;;;;;;19.47;48.10;98914.34;6950651;28;20229;-80
2022/08/12 05:28:35;;;;;;;5.33;3.93;;;;;;;19.59;48.51;98904.88;6958729;28;20231;-79
2022/08/12 05:31:58;;;;;;;4.47;3.43;;;;;;;19.90;47.68;98912.25;6961749;28;20209;-79
2022/08/12 05:35:20;;;;;;;6.03;3.30;;;;;;;20.92;45.11;98909.88;6960233;28;20238;-79
2022/08/12 05:38:58;;;;;;;4.37;3.57;;;;;;;21.51;44.26;98920.16;6960420;28;20210;-80
2022/08/12 05:42:23;;;;;;;3.73;3.00;;;;;;;21.49;42.83;98878.47;6958495;28;20236;-79
2022/08/12 05:45:48;;;;;;;3.67;3.23;;;;;;;21.00;45.07;98869.06;6968258;28;20231;-81
2022/08/12 05:49:10;;;;;;;3.40;3.10;;;;;;;21.04;44.35;98889.34;6968986;28;20207;-80
2022/08/12 05:52:32;;;;;;;4.60;3.17;;;;;;;22.15;42.51;98930.38;6971904;28;20235;-79
2022/08/12 05:55:54;;;;;;;4.63;3.10;;;;;;;22.82;41.31;98930.78;6957150;28;20249;-80
2022/08/12 05:59:15;;;;;;;5.00;3.30;;;;;;;23.60;40.28;98923.53;6949850;28;20201;-79
2022/08/12 06:02:45;;;;;;;3.07;2.80;;;;;;;23.28;39.83;98895.66;6952641;28;20289;-82
2022/08/12 06:06:07;;;;;;;3.70;3.40;;;;;;;23.91;38.64;98930.47;6949856;28;20663;-79
2022/08/12 06:09:29;;;;;;;4.87;2.93;;;;;;;24.41;37.73;98941.84;6955666;28;20222;-80
2022/08/12 06:12:51;;;;;;;90.97;51.97;;;;;;;25.46;36.52;98929.56;6954551;28;20253;-78
2022/08/12 06:16:17;;;;;;;16.87;13.47;;;;;;;25.82;35.58;98936.19;6956284;28;20230;-79
2022/08/12 06:19:40;;;;;;;5.80;2.80;;;;;;;26.21;34.97;98924.81;6956021;28;20655;-78
2022/08/12 06:23:02;;;;;;;3.67;2.90;;;;;;;26.45;34.67;98900.59;6956156;28;20234;-78
2022/08/12 06:26:24;;;;;;;4.27;2.93;;;;;;;26.17;34.67;98929.28;6958372;28;20203;-80
2022/08/12 06:29:46;;;;;;;3.40;2.60;;;;;;;26.25;33.84;98918.34;6953408;28;20266;-79
2022/08/12 06:33:08;;;;;;;26.40;23.27;;;;;;;27.44;31.17;98919.88;6959240;28;20230;-80
2022/08/12 06:36:32;;;;;;;2.83;2.53;;;;;;;27.53;31.57;98928.25;6966582;28;20231;-80
2022/08/12 06:39:53;;;;;;;2.57;2.37;;;;;;;28.46;29.21;98928.19;6966427;28;20263;-80
2022/08/12 06:43:14;;;;;;;3.33;2.43;;;;;;;27.82;29.00;98879.63;6959838;28;20234;-80
2022/08/12 06:46:37;;;;;;;3.67;2.47;;;;;;;28.34;28.68;98892.69;6959137;28;20249;-80
2022/08/12 06:50:00;;;;;;;2.60;2.40;;;;;;;29.06;27.51;98913.47;6955726;28;20677;-80
2022/08/12 06:53:25;;;;;;;2.70;2.20;;;;;;;28.66;27.95;98913.78;6954626;28;20224;-80
2022/08/12 06:56:47;;;;;;;6.10;2.40;;;;;;;28.11;27.46;98934.63;6958905;28;20216;-80
2022/08/12 07:00:11;;;;;;;3.23;2.43;;;;;;;27.22;29.01;98938.38;6940761;28;20211;-79
2022/08/12 07:03:33;;;;;;;3.33;2.60;;;;;;;27.59;28.81;98915.91;6947946;28;20226;-79
2022/08/12 07:06:54;;;;;;;3.20;2.63;;;;;;;27.77;28.13;98934.34;6952090;28;20218;-79
2022/08/12 07:10:17;;;;;;;4.03;2.33;;;;;;;27.90;28.26;98933.50;6951366;28;20226;-79
2022/08/12 07:13:43;;;;;;;2.60;2.40;;;;;;;27.75;28.58;98915.25;6955270;28;20264;-80
2022/08/12 07:17:06;;;;;;;2.90;2.60;;;;;;;28.34;28.00;98934.31;6950544;28;20218;-81
2022/08/12 07:20:28;;;;;;;4.27;2.60;;;;;;;27.96;27.68;98935.03;6944692;28;20208;-79
2022/08/12 07:23:49;;;;;;;2.40;2.20;;;;;;;26.58;30.25;98921.94;6942476;28;20712;-79
2022/08/12 07:27:16;;;;;;;4.77;2.20;;;;;;;27.62;28.92;98918.06;6929151;28;20215;-80
2022/08/12 07:30:40;;;;;;;4.60;2.40;;;;;;;27.48;28.34;98867.44;6934052;28;20268;-79
2022/08/12 07:34:03;;;;;;;3.53;2.50;;;;;;;27.96;28.69;98921.97;6934137;28;20220;-80
2022/08/12 07:37:24;;;;;;;2.77;2.57;;;;;;;28.43;27.92;98926.06;6932295;28;20266;-80
2022/08/12 07:40:50;;;;;;;2.87;2.40;;;;;;;27.77;28.21;98918.56;6945706;28;20266;-80
2022/08/12 07:44:14;;;;;;;3.23;2.80;;;;;;;27.52;29.07;98907.22;6968635;28;20240;-79
2022/08/12 07:47:38;;;;;;;2.53;2.33;;;;;;;28.16;28.00;98912.31;6968580;28;20208;-80
2022/08/12 07:51:00;;;;;;;3.93;2.43;;;;;;;27.95;28.44;98913.97;6954853;28;20227;-79
2022/08/12 07:54:22;;;;;;;3.43;2.90;;;;;;;28.40;27.73;98899.78;6949703;28;20225;-79
2022/08/12 07:57:56;;;;;;;3.87;2.23;;;;;;;29.55;25.84;98913.09;6949998;28;20211;-80
2022/08/12 08:01:21;;;;;;;3.73;2.50;;;;;;;29.72;25.46;98906.75;6951226;28;20289;-80
2022/08/12 08:04:59;;;;;;;5.77;2.40;;;;;;;29.57;25.96;98888.59;6951782;28;20840;-80
2022/08/12 08:08:22;;;;;;;3.17;2.67;;;;;;;29.75;25.87;98884.66;6950887;28;20211;-80
2022/08/12 08:15:25;;;;;;;5.07;2.40;;;;;;;30.13;25.09;98884.81;6924317;28;20294;-79
2022/08/12 08:18:48;;;;;;;6.43;2.60;;;;;;;29.71;25.45;98892.00;6929373;28;20202;-80
2022/08/12 08:22:10;;;;;;;5.90;2.53;;;;;;;31.12;24.09;98893.44;6934540;28;20285;-80
2022/08/12 08:25:32;;;;;;;4.13;2.40;;;;;;;31.18;22.89;98890.16;6950827;28;20210;-80
2022/08/12 08:28:54;;;;;;;4.07;2.60;;;;;;;30.32;24.29;98899.97;6927218;28;20573;-80
2022/08/12 08:32:15;;;;;;;4.67;2.30;;;;;;;30.56;24.17;98894.69;6923000;28;20231;-80
2022/08/12 08:35:40;;;;;;;7.47;2.70;;;;;;;32.13;22.24;98886.31;6922571;28;20237;-81
2022/08/12 08:39:03;;;;;;;2.97;2.33;;;;;;;30.89;22.72;98897.69;6922081;28;20237;-80
2022/08/12 08:42:38;;;;;;;3.37;2.37;;;;;;;30.60;23.19;98887.28;6939210;28;20227;-80
2022/08/12 08:46:04;;;;;;;3.13;2.23;;;;;;;31.73;22.11;98887.97;6948279;28;20630;-80
2022/08/12 08:49:26;;;;;;;2.53;2.13;;;;;;;30.95;22.45;98888.00;6951231;28;20217;-81
2022/08/12 08:52:48;;;;;;;2.53;2.33;;;;;;;31.48;22.75;98880.63;6974077;28;20212;-81
2022/08/12 08:56:10;;;;;;;3.77;2.30;;;;;;;32.35;21.58;98885.13;6968212;28;20234;-79
2022/08/12 08:59:32;;;;;;;2.30;1.90;;;;;;;33.12;20.75;98884.97;6948449;28;20766;-79
2022/08/12 09:02:53;;;;;;;3.93;2.40;;;;;;;31.44;22.15;98879.66;6936172;28;20368;-79
2022/08/12 09:06:15;;;;;;;2.70;2.10;;;;;;;32.50;21.64;98879.72;6920777;28;20249;-78
2022/08/12 09:09:38;;;;;;;2.37;2.00;;;;;;;31.79;21.57;98891.41;6931711;28;20255;-79
2022/08/12 09:16:40;;;;;;;2.10;1.90;;;;;;;30.66;21.88;98883.19;6947288;28;20698;-79
2022/08/12 09:20:01;;;;;;;2.77;2.10;;;;;;;32.58;20.67;98850.03;6947154;28;20222;-79
2022/08/12 09:23:25;;;;;;;3.47;2.20;;;;;;;31.08;22.30;98870.22;6948490;28;20223;-80
2022/08/12 09:26:48;;;;;;;2.50;2.10;;;;;;;31.93;21.05;98848.13;6947965;28;20554;-78
2022/08/12 09:30:14;;;;;;;2.20;2.00;;;;;;;30.37;23.17;98874.75;6944125;28;20307;-79
2022/08/12 09:33:36;;;;;;;3.63;2.27;;;;;;;30.69;21.95;98845.53;6947512;28;20299;-79
2022/08/12 09:36:58;;;;;;;2.00;1.80;;;;;;;32.16;21.16;98865.25;6947269;28;20598;-80
2022/08/12 09:40:20;;;;;;;3.63;1.97;;;;;;;32.07;20.92;98822.72;6947048;28;20233;-78
2022/08/12 09:47:27;;;;;;;8.83;2.50;;;;;;;32.42;20.39;98854.69;6933204;28;20215;-79
2022/08/12 09:50:50;;;;;;;3.93;2.20;;;;;;;32.03;20.96;98856.06;6948560;28;20264;-79
2022/08/12 09:54:12;;;;;;;2.90;2.30;;;;;;;31.01;21.54;98864.38;6950363;28;20225;-83
2022/08/12 09:57:34;;;;;;;2.47;2.27;;;;;;;30.69;22.48;98848.31;6950102;28;20224;-80
2022/08/12 10:01:00;;;;;;;2.43;2.23;;;;;;;30.82;22.53;98853.66;6937734;28;20211;-80
2022/08/12 10:04:21;;;;;;;2.13;1.93;;;;;;;31.63;21.59;98829.84;6920373;28;20266;-81
2022/08/12 10:07:43;;;;;;;43.13;38.77;;;;;;;32.73;20.73;98807.47;6922471;28;20214;-81
2022/08/12 10:14:45;;;;;;;2.87;2.20;;;;;;;32.74;20.13;98831.44;6948685;28;20672;-80
2022/08/12 10:18:09;;;;;;;30.83;25.33;;;;;;;33.04;20.09;98822.50;6945778;28;20721;-80
2022/08/12 10:21:33;;;;;;;5.50;4.33;;;;;;;32.70;19.96;98820.13;6952634;28;20212;-79
2022/08/12 10:32:11;;;;;;;3.40;2.53;;;;;;;34.16;18.33;98797.88;6953760;28;20203;-79
2022/08/12 10:35:34;;;;;;;4.13;1.93;;;;;;;33.14;18.79;98810.00;6952136;28;20223;-79
2022/08/12 10:38:55;;;;;;;4.13;1.87;;;;;;;33.11;18.44;98786.38;6932483;28;20203;-80
2022/08/12 10:45:56;;;;;;;3.50;2.07;;;;;;;32.27;19.23;98769.66;6953474;28;20283;-81
2022/08/12 10:49:18;;;;;;;2.73;1.83;;;;;;;32.57;19.40;98785.00;6954569;28;20214;-80
2022/08/12 10:52:47;;;;;;;3.43;1.60;;;;;;;34.47;18.09;98769.91;6966936;28;20235;-80
2022/08/12 10:56:09;;;;;;;3.40;2.03;;;;;;;33.80;17.79;98786.91;6962508;28;20222;-79
2022/08/12 10:59:31;;;;;;;5.00;1.80;;;;;;;33.11;18.57;98783.59;6961062;28;20265;-81
2022/08/12 11:02:53;;;;;;;3.30;1.87;;;;;;;31.85;19.51;98779.25;6952957;28;20233;-79
2022/08/12 11:06:14;;;;;;;3.53;1.80;;;;;;;31.43;20.61;98780.47;6951605;28;20298;-79
2022/08/12 11:09:37;;;;;;;2.20;2.00;;;;;;;33.67;18.32;98776.88;6951032;28;20230;-79
2022/08/12 11:12:59;;;;;;;3.67;1.80;;;;;;;33.43;18.32;98776.19;6945781;28;20304;-80
2022/08/12 11:16:21;;;;;;;4.03;1.90;;;;;;;32.42;18.20;98752.19;6950381;28;20574;-79
2022/08/12 11:19:44;;;;;;;5.87;1.60;;;;;;;33.39;18.07;98770.50;6950461;28;20245;-79
2022/08/12 11:23:05;;;;;;;2.03;1.90;;;;;;;33.86;17.73;98762.25;6950590;28;20223;-79
2022/08/12 11:26:28;;;;;;;2.13;1.70;;;;;;;32.68;18.14;98741.50;6950938;28;20246;-79
2022/08/12 11:29:49;;;;;;;3.30;1.80;;;;;;;33.07;18.73;98751.91;6947918;28;20234;-80
2022/08/12 11:33:12;;;;;;;2.97;2.13;;;;;;;31.80;19.71;98746.03;6922321;28;20316;-78
2022/08/12 11:36:33;;;;;;;1.70;1.60;;;;;;;34.18;17.91;98753.53;6922759;28;20231;-78
2022/08/12 11:39:55;;;;;;;3.03;1.70;;;;;;;34.60;17.13;98742.63;6921631;28;20239;-79
2022/08/12 11:43:18;;;;;;;1.70;1.60;;;;;;;32.82;18.75;98763.47;6931033;28;20258;-79
2022/08/12 11:46:40;;;;;;;2.17;1.97;;;;;;;34.41;17.41;98718.16;6931373;28;20706;-79
2022/08/12 11:50:02;;;;;;;2.50;2.27;;;;;;;31.57;20.00;98749.53;6963099;28;20786;-77
2022/08/12 11:53:24;;;;;;;2.30;2.10;;;;;;;33.68;18.15;98724.56;6976733;28;20325;-78
2022/08/12 11:56:45;;;;;;;2.17;1.87;;;;;;;33.94;17.21;98739.72;6977640;28;20253;-78
2022/08/12 12:00:10;;;;;;;3.93;1.90;;;;;;;33.30;18.26;98733.47;6979303;28;20207;-78
2022/08/12 12:03:31;;;;;;;3.77;1.73;;;;;;;34.18;17.16;98731.16;7005133;28;20229;-79
2022/08/12 12:06:53;;;;;;;2.67;1.80;;;;;;;32.72;18.76;98742.41;6977267;28;20261;-78
2022/08/12 12:10:16;;;;;;;2.13;2.00;;;;;;;34.79;17.22;98721.09;6949744;28;20211;-79
2022/08/12 12:13:38;;;;;;;3.00;1.80;;;;;;;34.57;17.27;98726.53;6948481;28;20609;-79
2022/08/12 12:17:01;;;;;;;4.27;2.00;;;;;;;35.01;16.67;98720.41;6948771;28;20270;-79
2022/08/12 12:20:23;;;;;;;3.37;1.90;;;;;;;35.52;16.46;98704.28;6946192;28;20317;-78
2022/08/12 12:23:44;;;;;;;2.17;1.97;;;;;;;35.79;16.20;98714.47;6950569;28;20301;-78
2022/08/12 12:27:07;;;;;;;2.30;1.90;;;;;;;33.48;18.19;98732.00;6949197;28;20253;-79
2022/08/12 12:30:29;;;;;;;6.00;2.20;;;;;;;33.65;18.46;98711.28;6948480;28;20207;-79
2022/08/12 12:33:52;;;;;;;1.90;1.80;;;;;;;34.97;17.38;98711.09;6948730;28;20227;-79
2022/08/12 12:37:14;;;;;;;2.13;1.93;;;;;;;35.39;16.96;98716.84;6947891;28;20720;-79
2022/08/12 12:40:36;;;;;;;2.20;1.90;;;;;;;33.66;17.76;98736.09;6949390;28;20308;-78
2022/08/12 12:43:58;;;;;;;3.07;1.90;;;;;;;32.48;19.41;98714.50;6949188;28;20223;-82
2022/08/12 12:47:21;;;;;;;3.03;1.73;;;;;;;33.27;18.35;98711.00;6947972;28;20209;-79
2022/08/12 12:50:45;;;;;;;2.60;1.70;;;;;;;32.16;19.38;98707.03;6947697;28;20242;-78
2022/08/12 12:54:09;;;;;;;2.43;2.03;;;;;;;34.44;17.72;98695.00;6948501;28;20247;-80
2022/08/12 12:57:38;;;;;;;1.60;1.40;;;;;;;34.62;16.52;98673.03;6947962;28;20719;-79
2022/08/12 13:01:01;;;;;;;2.30;2.00;;;;;;;35.21;16.70;98691.22;6951951;28;20210;-79
2022/08/12 13:04:23;;;;;;;2.00;1.80;;;;;;;34.26;17.56;98698.59;6952592;28;20625;-79
2022/08/12 13:07:46;;;;;;;3.00;1.77;;;;;;;33.88;17.58;98690.78;6949464;28;20199;-79
2022/08/12 13:11:08;;;;;;;3.00;1.70;;;;;;;34.47;16.80;98677.50;6948321;28;20226;-79
2022/08/12 13:14:30;;;;;;;2.00;1.80;;;;;;;35.79;16.21;98667.53;6942147;28;20231;-79
2022/08/12 13:17:54;;;;;;;3.50;2.10;;;;;;;34.84;16.63;98681.59;6947240;28;20313;-79
2022/08/12 13:21:16;;;;;;;2.30;1.70;;;;;;;32.25;18.85;98684.63;6947826;28;20231;-78
2022/08/12 13:24:39;;;;;;;4.33;2.10;;;;;;;31.68;19.53;98684.63;6948247;28;20231;-78
2022/08/12 13:28:02;;;;;;;2.50;1.80;;;;;;;32.44;19.58;98684.84;6947213;28;20217;-79
2022/08/12 13:31:24;;;;;;;3.73;2.23;;;;;;;32.89;18.57;98683.50;6930655;28;20211;-79
2022/08/12 13:34:52;;;;;;;1.50;1.40;;;;;;;33.89;17.36;98684.00;6921249;28;20242;-79
2022/08/12 13:38:13;;;;;;;2.50;1.97;;;;;;;32.44;19.10;98679.25;6922472;28;20270;-79
2022/08/12 13:41:37;;;;;;;2.67;1.77;;;;;;;33.02;18.22;98673.13;6940156;28;20218;-78
2022/08/12 13:44:59;;;;;;;2.37;1.70;;;;;;;33.32;17.80;98674.41;6948006;28;20664;-78
2022/08/12 13:48:22;;;;;;;6.57;1.97;;;;;;;33.48;17.96;98664.88;6947499;28;20257;-78
2022/08/12 13:51:52;;;;;;;2.57;1.70;;;;;;;33.36;18.19;98675.34;6947863;28;20221;-79
2022/08/12 13:55:14;;;;;;;2.20;1.80;;;;;;;33.03;17.93;98671.94;6948122;28;20234;-79
2022/08/12 13:58:47;;;;;;;2.67;1.90;;;;;;;32.64;17.87;98679.13;6952612;28;20230;-77
2022/08/12 14:02:12;;;;;;;2.50;1.40;;;;;;;33.77;17.31;98652.50;6955340;28;20227;-79
2022/08/12 14:05:33;;;;;;;1.80;1.60;;;;;;;34.14;17.03;98656.66;6952039;28;20579;-78
2022/08/12 14:08:55;;;;;;;2.10;1.63;;;;;;;33.53;17.68;98653.44;6950874;28;20211;-78
2022/08/12 14:12:17;;;;;;;2.37;1.73;;;;;;;34.09;16.91;98659.72;6954330;28;20219;-77
2022/08/12 14:15:43;;;;;;;5.20;1.63;;;;;;;33.27;17.54;98671.88;6951572;28;20701;-77
2022/08/12 14:19:05;;;;;;;2.27;1.40;;;;;;;31.38;18.85;98662.81;6951070;28;20242;-78
2022/08/12 14:22:27;;;;;;;2.37;1.50;;;;;;;31.09;19.72;98655.38;6952777;28;20791;-77
2022/08/12 14:25:49;;;;;;;1.70;1.60;;;;;;;33.34;17.59;98635.72;6951691;28;20255;-79
2022/08/12 14:29:10;;;;;;;1.47;1.37;;;;;;;33.43;17.08;98645.56;6952138;28;20210;-77
2022/08/12 14:32:33;;;;;;;3.20;1.37;;;;;;;32.34;18.31;98647.06;6952650;28;20219;-77
2022/08/12 14:35:55;;;;;;;3.33;1.50;;;;;;;33.01;17.51;98651.94;6952942;28;20210;-79
2022/08/12 14:39:17;;;;;;;1.67;1.57;;;;;;;33.32;17.60;98638.06;6951631;28;20340;-78
2022/08/12 14:42:38;;;;;;;3.63;1.50;;;;;;;33.29;17.73;98658.34;6948619;28;20313;-78
2022/08/12 14:46:02;;;;;;;2.93;1.90;;;;;;;33.59;17.79;98662.38;6948656;28;20238;-78
2022/08/12 14:49:25;;;;;;;4.90;2.00;;;;;;;33.51;17.74;98664.19;6951011;28;20245;-78
2022/08/12 14:52:48;;;;;;;3.23;1.47;;;;;;;31.92;18.80;98662.38;6951418;28;20242;-78
2022/08/12 14:56:10;;;;;;;3.03;1.57;;;;;;;31.21;19.75;98663.81;6950978;28;20239;-78
2022/08/12 15:03:12;;;;;;;1.70;1.60;;;;;;;32.17;18.75;98661.22;6950658;28;20230;-77
2022/08/12 15:06:36;;;;;;;4.43;1.60;;;;;;;32.93;17.99;98650.09;6950660;28;20212;-79
2022/08/12 15:09:57;;;;;;;1.63;1.53;;;;;;;32.47;18.33;98636.66;6950002;28;20213;-79
2022/08/12 15:13:21;;;;;;;2.20;1.40;;;;;;;33.62;17.36;98636.50;6951105;28;20292;-77
2022/08/12 15:16:42;;;;;;;2.53;1.77;;;;;;;33.46;18.72;98628.09;6960480;28;20218;-78
2022/08/12 15:20:05;;;;;;;3.33;1.50;;;;;;;33.62;17.70;98617.75;6979406;28;20217;-81
2022/08/12 15:23:30;;;;;;;1.60;1.50;;;;;;;33.99;17.05;98630.31;6954179;28;20234;-78
2022/08/12 15:26:52;;;;;;;2.03;1.43;;;;;;;32.98;17.79;98631.09;6940363;28;20239;-80
2022/08/12 15:30:15;;;;;;;2.50;1.33;;;;;;;32.80;17.73;98640.94;6924318;28;20215;-81
2022/08/12 15:33:37;;;;;;;2.73;1.53;;;;;;;32.94;17.72;98632.97;6924916;28;20734;-78
2022/08/12 15:36:58;;;;;;;1.67;1.43;;;;;;;33.33;17.11;98612.56;6923536;28;20230;-78
2022/08/12 15:40:23;;;;;;;2.00;1.50;;;;;;;33.91;16.69;98636.09;6922466;28;20210;-77
2022/08/12 15:43:44;;;;;;;3.47;1.50;;;;;;;33.73;17.25;98635.59;6944388;28;20730;-80
2022/08/12 15:47:06;;;;;;;4.13;3.73;;;;;;;34.01;17.02;98638.34;6946971;28;20245;-78
2022/08/12 15:50:29;;;;;;;2.43;1.60;;;;;;;33.74;17.42;98644.81;6950598;28;20707;-78
2022/08/12 15:54:06;;;;;;;2.00;1.50;;;;;;;33.36;17.51;98631.41;6947762;28;20234;-77
2022/08/12 15:57:29;;;;;;;3.13;1.50;;;;;;;32.60;17.81;98632.72;6949715;28;20299;-78
2022/08/12 16:00:51;;;;;;;1.73;1.63;;;;;;;32.21;18.41;98645.44;6949648;28;20616;-77
2022/08/12 16:04:14;;;;;;;1.90;1.50;;;;;;;31.83;18.56;98638.56;6949020;28;20771;-79
2022/08/12 16:07:36;;;;;;;3.53;1.30;;;;;;;32.51;18.92;98640.41;6950531;28;20202;-78
2022/08/12 16:10:57;;;;;;;2.87;1.40;;;;;;;32.69;18.20;98639.78;6946929;28;20235;-78
2022/08/12 16:14:20;;;;;;;1.80;1.30;;;;;;;32.70;18.11;98644.19;6948213;28;20273;-77
2022/08/12 16:17:43;;;;;;;2.07;1.30;;;;;;;32.13;18.82;98632.38;6947837;28;20566;-77
2022/08/12 16:21:06;;;;;;;3.00;1.50;;;;;;;32.02;18.60;98641.59;6948698;28;20694;-77
2022/08/12 16:24:27;;;;;;;2.87;1.43;;;;;;;32.36;18.42;98636.34;6948147;28;20373;-78
2022/08/12 16:27:50;;;;;;;1.73;1.20;;;;;;;32.30;18.03;98626.59;6936249;28;20213;-77
2022/08/12 16:31:14;;;;;;;3.07;1.10;;;;;;;32.82;17.96;98640.56;6947336;28;20207;-77
2022/08/12 16:34:36;;;;;;;1.30;1.07;;;;;;;32.19;18.81;98617.03;6947570;28;20223;-77
2022/08/12 16:37:57;;;;;;;2.73;1.70;;;;;;;31.78;18.78;98627.63;6945441;28;20701;-77
2022/08/12 16:41:19;;;;;;;1.43;1.10;;;;;;;32.66;18.20;98612.56;6947653;28;20237;-77
2022/08/12 16:44:41;;;;;;;1.17;1.13;;;;;;;33.00;17.60;98609.19;6946893;28;20314;-77
2022/08/12 16:48:04;;;;;;;2.87;1.50;;;;;;;32.93;18.38;98616.56;6931400;28;20254;-80
2022/08/12 16:51:26;;;;;;;2.40;1.20;;;;;;;32.58;17.65;98618.28;6923469;28;20306;-78
2022/08/12 16:54:47;;;;;;;0.97;0.97;;;;;;;32.14;17.76;98624.84;6948529;28;20265;-77
2022/08/12 16:58:11;;;;;;;1.03;1.03;;;;;;;32.54;17.60;98611.78;6946919;28;20282;-78
2022/08/12 17:01:35;;;;;;;1.07;0.90;;;;;;;32.82;17.02;98591.13;6947911;28;20574;-78
2022/08/12 17:04:58;;;;;;;1.27;1.10;;;;;;;32.50;17.70;98610.84;6947321;28;20223;-78
2022/08/12 17:08:22;;;;;;;1.17;1.07;;;;;;;32.64;16.94;98617.69;6946751;28;20230;-77
2022/08/12 17:11:43;;;;;;;3.80;1.10;;;;;;;33.04;16.71;98614.88;6947889;28;20210;-82
2022/08/12 17:15:07;;;;;;;1.80;1.00;;;;;;;32.33;17.26;98617.53;6948177;28;20265;-78
2022/08/12 17:18:31;;;;;;;1.40;0.93;;;;;;;31.41;17.75;98604.44;6947073;28;20230;-78
2022/08/12 17:21:54;;;;;;;0.70;0.70;;;;;;;32.19;17.31;98610.66;6947807;28;20247;-78
2022/08/12 17:25:16;;;;;;;2.23;1.20;;;;;;;31.86;17.38;98559.75;6948245;28;20319;-81
2022/08/12 17:28:37;;;;;;;1.00;0.90;;;;;;;32.05;17.44;98593.44;6947645;28;20229;-80
2022/08/12 17:32:01;;;;;;;1.40;1.30;;;;;;;31.84;17.31;98595.56;6948221;28;20685;-79
2022/08/12 17:35:29;;;;;;;1.70;1.07;;;;;;;32.52;17.08;98612.13;6947842;28;20693;-79
2022/08/12 17:38:52;;;;;;;2.03;1.10;;;;;;;32.91;16.97;98616.13;6946471;28;20270;-78
2022/08/12 17:42:14;;;;;;;1.50;1.33;;;;;;;32.43;17.05;98613.44;6946894;28;20203;-79
2022/08/12 17:45:37;;;;;;;1.03;1.03;;;;;;;32.53;17.27;98615.72;6947308;28;20372;-79
2022/08/12 17:48:59;;;;;;;1.93;1.07;;;;;;;31.90;17.56;98622.06;6928631;28;20212;-79